createdAt,value
2022-12-05T00:00:56.263Z,3.29
2022-12-05T00:03:23.395Z,3.19
2022-12-05T00:05:50.363Z,3.08
2022-12-05T00:08:17.858Z,3.12
2022-12-05T00:10:46.027Z,3.04
2022-12-05T00:13:12.895Z,3.08
2022-12-05T00:15:40.608Z,3.12
2022-12-05T00:18:07.542Z,3.15
2022-12-05T00:20:34.587Z,3.15
2022-12-05T00:23:01.554Z,3.10
2022-12-05T00:25:29.223Z,3.08
2022-12-05T00:27:56.180Z,3.05
2022-12-05T00:30:23.105Z,3.11
2022-12-05T00:32:50.013Z,3.14
2022-12-05T00:35:16.970Z,3.19
2022-12-05T00:37:43.920Z,3.15
2022-12-05T00:40:10.997Z,3.15
2022-12-05T00:42:37.964Z,3.22
2022-12-05T00:45:05.190Z,3.13
2022-12-05T00:47:34.600Z,3.06
2022-12-05T00:50:01.599Z,3.03
2022-12-05T00:52:28.535Z,3.08
2022-12-05T00:54:55.424Z,3.03
2022-12-05T00:57:22.433Z,3.00
2022-12-05T00:59:49.321Z,2.97
2022-12-05T01:02:16.527Z,2.92
2022-12-05T01:04:43.362Z,2.91
2022-12-05T01:07:10.283Z,2.87
2022-12-05T01:09:37.289Z,2.86
2022-12-05T01:12:04.254Z,2.78
2022-12-05T01:14:34.897Z,2.77
2022-12-05T01:17:01.931Z,2.76
2022-12-05T01:19:30.683Z,2.71
2022-12-05T01:21:57.912Z,2.67
2022-12-05T01:24:25.100Z,2.61
2022-12-05T01:26:52.469Z,2.55
2022-12-05T01:29:20.236Z,2.51
2022-12-05T01:31:47.522Z,2.48
2022-12-05T01:34:15.723Z,2.43
2022-12-05T01:36:42.669Z,2.38
2022-12-05T01:39:10.778Z,2.26
2022-12-05T01:41:40.392Z,2.19
2022-12-05T01:44:07.225Z,2.21
2022-12-05T01:46:35.860Z,2.18
2022-12-05T01:49:14.051Z,2.06
2022-12-05T01:51:43.489Z,1.97
2022-12-05T01:54:10.519Z,1.95
2022-12-05T01:56:37.899Z,1.88
2022-12-05T01:59:07.777Z,1.92
2022-12-05T02:01:35.335Z,1.93
2022-12-05T02:04:02.528Z,1.92
2022-12-05T02:06:29.784Z,1.91
2022-12-05T02:08:56.646Z,1.92
2022-12-05T02:11:25.019Z,1.88
2022-12-05T02:14:11.784Z,1.88
2022-12-05T02:16:48.698Z,1.88
2022-12-05T02:19:30.801Z,1.86
2022-12-05T02:22:00.418Z,1.87
2022-12-05T02:24:40.948Z,1.84
2022-12-05T02:27:36.324Z,1.86
2022-12-05T02:30:05.739Z,1.82
2022-12-05T02:32:36.221Z,1.76
2022-12-05T02:35:06.134Z,1.75
2022-12-05T02:37:40.036Z,1.76
2022-12-05T02:40:29.614Z,1.79
2022-12-05T02:43:00.893Z,1.82
2022-12-05T02:45:28.844Z,1.81
2022-12-05T02:47:56.106Z,1.74
2022-12-05T02:50:24.982Z,1.70
2022-12-05T02:52:54.358Z,1.74
2022-12-05T02:55:22.677Z,1.74
2022-12-05T02:57:52.935Z,1.71
2022-12-05T03:00:19.781Z,1.74
2022-12-05T03:02:48.594Z,1.73
2022-12-05T03:05:20.651Z,1.72
2022-12-05T03:07:50.378Z,1.71
2022-12-05T03:10:18.954Z,1.68
2022-12-05T03:12:49.902Z,1.65
2022-12-05T03:15:17.732Z,1.66
2022-12-05T03:17:48.545Z,1.68
2022-12-05T03:20:29.299Z,1.70
2022-12-05T03:22:58.972Z,1.65
2022-12-05T03:25:29.506Z,1.68
2022-12-05T03:28:06.280Z,1.70
2022-12-05T03:30:36.097Z,1.66
2022-12-05T03:36:57.393Z,1.74
2022-12-05T03:39:27.767Z,1.75
2022-12-05T03:42:12.511Z,1.76
2022-12-05T03:44:51.311Z,1.76
2022-12-05T03:47:25.995Z,1.73
2022-12-05T03:49:56.659Z,1.67
2022-12-05T03:53:19.057Z,1.64
2022-12-05T03:55:46.906Z,1.66
2022-12-05T03:58:17.724Z,1.68
2022-12-05T04:00:47.199Z,1.68
2022-12-05T04:03:19.208Z,1.69
2022-12-05T04:06:05.100Z,1.66
2022-12-05T04:08:33.296Z,1.64
2022-12-05T04:11:06.390Z,1.66
2022-12-05T04:13:36.678Z,1.64
2022-12-05T04:16:45.683Z,1.68
2022-12-05T04:19:19.608Z,1.67
2022-12-05T04:21:52.135Z,1.70
2022-12-05T04:24:51.226Z,1.68
2022-12-05T04:27:38.560Z,1.68
2022-12-05T04:30:05.762Z,1.69
2022-12-05T04:32:38.176Z,1.70
2022-12-05T04:35:09.347Z,1.67
2022-12-05T04:37:37.312Z,1.67
2022-12-05T04:40:09.479Z,1.70
2022-12-05T04:42:37.247Z,1.68
2022-12-05T04:45:06.607Z,1.69
2022-12-05T04:47:37.149Z,1.69
2022-12-05T04:50:06.102Z,1.64
2022-12-05T04:52:33.486Z,1.66
2022-12-05T04:55:00.251Z,1.64
2022-12-05T04:57:32.921Z,1.68
2022-12-05T05:00:00.056Z,1.68
2022-12-05T05:02:37.784Z,1.68
2022-12-05T05:05:12.484Z,1.72
2022-12-05T05:07:45.188Z,1.72
2022-12-05T05:10:14.246Z,1.72
2022-12-05T05:12:41.201Z,1.70
2022-12-05T05:15:11.472Z,1.69
2022-12-05T05:17:38.278Z,1.70
2022-12-05T05:20:23.675Z,1.66
2022-12-05T05:22:51.570Z,1.68
2022-12-05T05:25:19.002Z,1.73
2022-12-05T05:27:50.285Z,1.71
2022-12-05T05:30:17.536Z,1.69
2022-12-05T05:32:44.378Z,1.69
2022-12-05T05:35:11.784Z,1.68
2022-12-05T05:37:38.910Z,1.68
2022-12-05T05:40:10.929Z,1.65
2022-12-05T05:42:48.147Z,1.67
2022-12-05T05:45:15.428Z,1.75
2022-12-05T05:47:42.474Z,1.01
2022-12-05T05:50:10.197Z,1.70
2022-12-05T05:52:37.936Z,1.77
2022-12-05T05:55:05.674Z,1.75
2022-12-05T05:57:32.528Z,1.73
2022-12-05T05:59:59.554Z,1.73
2022-12-05T06:02:31.047Z,1.74
2022-12-05T06:04:57.908Z,1.81
2022-12-05T06:07:25.257Z,1.79
2022-12-05T06:09:52.067Z,1.82
2022-12-05T06:12:18.884Z,1.77
2022-12-05T06:14:47.346Z,1.80
2022-12-05T06:17:14.291Z,1.80
2022-12-05T06:19:41.112Z,1.77
2022-12-05T06:22:08.252Z,1.75
2022-12-05T06:24:35.064Z,1.77
2022-12-05T06:27:01.891Z,1.84
2022-12-05T06:29:33.514Z,1.79
2022-12-05T06:32:01.452Z,1.73
2022-12-05T06:34:28.466Z,1.77
2022-12-05T06:36:55.268Z,1.73
2022-12-05T06:39:22.100Z,1.77
2022-12-05T06:41:48.974Z,1.79
2022-12-05T06:44:15.908Z,1.87
2022-12-05T06:46:42.736Z,1.88
2022-12-05T06:49:09.998Z,1.91
2022-12-05T06:51:36.838Z,1.90
2022-12-05T06:54:03.786Z,1.90
2022-12-05T06:56:30.589Z,1.94
2022-12-05T06:58:57.664Z,1.93
2022-12-05T07:01:41.526Z,1.92
2022-12-05T07:04:13.435Z,1.92
2022-12-05T07:06:41.813Z,1.93
2022-12-05T07:09:10.992Z,1.93
2022-12-05T07:11:38.215Z,2.05
2022-12-05T07:14:10.677Z,2.03
2022-12-05T07:16:46.213Z,1.99
2022-12-05T07:19:13.080Z,2.01
2022-12-05T07:21:39.880Z,1.99
2022-12-05T07:24:06.791Z,2.00
2022-12-05T07:26:33.581Z,1.95
2022-12-05T07:29:00.476Z,1.97
2022-12-05T07:31:29.692Z,1.99
2022-12-05T07:33:56.558Z,1.99
2022-12-05T07:36:23.721Z,2.06
2022-12-05T07:38:57.162Z,2.10
2022-12-05T07:41:31.904Z,2.07
2022-12-05T07:44:00.050Z,2.05
2022-12-05T07:46:27.810Z,2.08
2022-12-05T07:48:55.218Z,2.13
2022-12-05T07:51:22.217Z,2.15
2022-12-05T07:53:49.050Z,2.10
2022-12-05T07:56:17.184Z,2.14
2022-12-05T07:58:45.051Z,2.17
2022-12-05T08:01:15.120Z,2.14
2022-12-05T08:03:42.512Z,2.17
2022-12-05T08:06:13.748Z,2.22
2022-12-05T08:08:40.911Z,2.21
2022-12-05T08:11:11.945Z,2.26
2022-12-05T08:13:38.799Z,2.31
2022-12-05T08:16:07.178Z,2.38
2022-12-05T08:18:34.004Z,2.44
2022-12-05T08:21:04.712Z,2.47
2022-12-05T08:23:31.810Z,2.42
2022-12-05T08:26:02.787Z,2.45
2022-12-05T08:28:29.976Z,2.49
2022-12-05T08:30:56.821Z,2.48
2022-12-05T08:33:23.647Z,2.57
2022-12-05T08:35:50.446Z,2.55
2022-12-05T08:38:17.238Z,2.65
2022-12-05T08:40:44.074Z,2.65
2022-12-05T08:43:10.904Z,2.70
2022-12-05T08:45:37.699Z,2.74
2022-12-05T08:48:04.599Z,2.74
2022-12-05T08:50:31.438Z,2.72
2022-12-05T08:52:58.281Z,2.73
2022-12-05T08:55:25.170Z,2.70
2022-12-05T08:57:51.947Z,2.72
2022-12-05T09:00:18.972Z,2.74
2022-12-05T09:02:50.426Z,2.83
2022-12-05T09:05:27.669Z,2.92
2022-12-05T09:07:55.572Z,2.97
2022-12-05T09:10:22.633Z,2.93
2022-12-05T09:12:51.168Z,2.97
2022-12-05T09:15:18.324Z,2.32
2022-12-05T09:17:45.619Z,3.13
2022-12-05T09:20:13.897Z,3.23
2022-12-05T09:22:42.438Z,3.30
2022-12-05T09:25:09.434Z,3.37
2022-12-05T09:27:36.244Z,3.27
2022-12-05T09:30:03.649Z,3.30
2022-12-05T09:32:30.468Z,3.29
2022-12-05T09:34:57.403Z,3.21
2022-12-05T09:37:38.887Z,3.19
2022-12-05T09:40:15.338Z,3.21
2022-12-05T09:42:45.373Z,3.22
2022-12-05T09:45:18.033Z,3.22
2022-12-05T09:47:44.800Z,2.90
2022-12-05T09:50:18.753Z,3.17
2022-12-05T09:52:55.368Z,3.13
2022-12-05T09:55:22.298Z,3.05
2022-12-05T09:57:54.068Z,3.06
2022-12-05T10:00:20.958Z,3.03
2022-12-05T10:02:47.722Z,3.15
2022-12-05T10:05:19.377Z,3.17
2022-12-05T10:07:53.353Z,3.17
2022-12-05T10:10:39.155Z,3.22
2022-12-05T10:13:16.663Z,3.24
2022-12-05T10:15:47.627Z,3.29
2022-12-05T10:18:33.198Z,3.39
2022-12-05T10:21:05.396Z,3.37
2022-12-05T10:26:38.067Z,3.33
2022-12-05T10:29:15.793Z,3.48
2022-12-05T10:31:44.669Z,3.58
2022-12-05T10:34:14.594Z,3.40
2022-12-05T10:36:46.678Z,3.60
2022-12-05T10:39:13.498Z,3.45
2022-12-05T10:41:40.323Z,3.37
2022-12-05T10:44:07.212Z,3.28
2022-12-05T10:46:34.220Z,3.44
2022-12-05T10:49:01.067Z,3.54
2022-12-05T10:51:32.644Z,3.71
2022-12-05T10:54:24.506Z,3.86
2022-12-05T10:56:52.561Z,3.83
2022-12-05T10:59:21.020Z,3.80
2022-12-05T11:01:53.560Z,3.77
2022-12-05T11:04:22.783Z,3.78
2022-12-05T11:06:55.696Z,3.84
2022-12-05T11:09:27.091Z,4.01
2022-12-05T11:12:02.560Z,4.09
2022-12-05T11:14:29.865Z,4.07
2022-12-05T11:16:58.122Z,3.94
2022-12-05T11:19:26.455Z,3.87
2022-12-05T11:21:53.534Z,3.86
2022-12-05T11:24:21.324Z,3.68
2022-12-05T11:26:48.135Z,3.50
2022-12-05T11:29:34.365Z,3.36
2022-12-05T11:32:02.154Z,3.46
2022-12-05T11:34:37.626Z,3.56
2022-12-05T11:37:13.276Z,3.44
2022-12-05T11:39:40.695Z,3.48
2022-12-05T11:42:19.270Z,3.50
2022-12-05T11:45:12.369Z,3.41
2022-12-05T11:47:57.906Z,3.39
2022-12-05T11:50:32.038Z,3.28
2022-12-05T11:53:04.986Z,3.28
2022-12-05T11:55:48.098Z,3.28
2022-12-05T11:58:20.919Z,3.24
2022-12-05T12:01:03.679Z,3.21
2022-12-05T12:03:33.310Z,3.14
2022-12-05T12:06:19.887Z,3.21
2022-12-05T12:09:06.023Z,3.16
2022-12-05T12:11:38.768Z,3.11
2022-12-05T12:14:24.391Z,3.07
2022-12-05T12:17:03.765Z,3.34
2022-12-05T12:19:47.250Z,3.27
2022-12-05T12:22:41.023Z,3.54
2022-12-05T12:25:20.234Z,3.51
2022-12-05T12:27:47.129Z,3.56
2022-12-05T12:30:19.974Z,3.51
2022-12-05T12:32:56.026Z,3.47
2022-12-05T12:35:27.898Z,3.51
2022-12-05T12:38:13.220Z,3.49
2022-12-05T12:40:39.979Z,3.44
2022-12-05T12:43:52.745Z,3.38
2022-12-05T12:46:16.741Z,3.46
2022-12-05T12:48:55.972Z,3.32
2022-12-05T12:51:22.806Z,3.44
2022-12-05T12:54:01.548Z,3.34
2022-12-05T12:56:36.734Z,3.41
2022-12-05T12:59:06.290Z,3.32
2022-12-05T13:01:33.187Z,3.44
2022-12-05T13:04:04.276Z,3.49
2022-12-05T13:06:49.768Z,3.45
2022-12-05T13:09:35.082Z,3.47
2022-12-05T13:12:06.338Z,3.42
2022-12-05T13:14:34.682Z,3.37
2022-12-05T13:17:01.904Z,3.36
2022-12-05T13:19:38.913Z,3.27
2022-12-05T13:22:06.191Z,3.41
2022-12-05T13:24:33.559Z,3.47
2022-12-05T13:27:02.495Z,3.48
2022-12-05T13:29:32.393Z,3.34
2022-12-05T13:32:01.673Z,3.37
2022-12-05T13:34:29.246Z,3.34
2022-12-05T13:37:17.167Z,3.49
2022-12-05T13:40:10.407Z,3.51
2022-12-05T13:42:37.821Z,3.34
2022-12-05T13:45:04.792Z,3.32
2022-12-05T13:47:37.473Z,3.33
2022-12-05T13:50:10.014Z,3.27
2022-12-05T13:52:52.164Z,3.19
2022-12-05T13:55:23.156Z,3.50
2022-12-05T13:57:51.851Z,3.33
2022-12-05T14:00:18.655Z,3.29
2022-12-05T14:02:46.034Z,3.33
2022-12-05T14:05:18.869Z,3.25
2022-12-05T14:07:52.851Z,3.38
2022-12-05T14:10:23.954Z,3.32
2022-12-05T14:12:52.602Z,3.41
2022-12-05T14:15:33.688Z,3.31
2022-12-05T14:18:02.332Z,3.26
2022-12-05T14:20:58.129Z,3.23
2022-12-05T14:23:37.380Z,3.24
2022-12-05T14:26:17.118Z,3.13
2022-12-05T14:28:43.939Z,3.11
2022-12-05T14:31:24.426Z,3.10
2022-12-05T14:34:26.637Z,3.10
2022-12-05T14:37:24.133Z,3.29
2022-12-05T14:39:52.857Z,3.09
2022-12-05T14:42:22.513Z,3.22
2022-12-05T14:44:50.020Z,3.11
2022-12-05T14:47:43.093Z,3.21
2022-12-05T14:50:33.193Z,3.12
2022-12-05T14:53:18.867Z,3.19
2022-12-05T14:55:47.515Z,3.08
2022-12-05T14:58:48.198Z,3.10
2022-12-05T15:01:18.464Z,3.01
2022-12-05T15:03:52.633Z,3.06
2022-12-05T15:06:22.496Z,3.03
2022-12-05T15:08:50.465Z,3.09
2022-12-05T15:11:28.211Z,3.11
2022-12-05T15:14:18.232Z,3.04
2022-12-05T15:16:46.199Z,3.04
2022-12-05T15:19:17.368Z,3.05
2022-12-05T15:21:50.699Z,3.12
2022-12-05T15:24:18.462Z,3.01
2022-12-05T15:26:55.955Z,3.02
2022-12-05T15:29:25.613Z,2.93
2022-12-05T15:31:58.752Z,3.00
2022-12-05T15:34:29.269Z,2.93
2022-12-05T15:36:57.980Z,2.94
2022-12-05T15:39:26.172Z,2.89
2022-12-05T15:41:53.414Z,2.95
2022-12-05T15:44:26.748Z,2.94
2022-12-05T15:46:55.856Z,3.00
2022-12-05T15:49:25.130Z,2.95
2022-12-05T15:51:59.077Z,2.97
2022-12-05T15:54:32.207Z,2.95
2022-12-05T15:57:01.873Z,2.93
2022-12-05T15:59:36.111Z,2.91
2022-12-05T16:02:09.788Z,2.93
2022-12-05T16:04:39.463Z,3.02
2022-12-05T16:07:09.495Z,3.03
2022-12-05T16:09:39.638Z,3.06
2022-12-05T16:12:17.050Z,3.09
2022-12-05T16:14:59.540Z,3.18
2022-12-05T16:17:28.771Z,3.23
2022-12-05T16:20:09.688Z,3.11
2022-12-05T16:22:36.523Z,3.11
2022-12-05T16:25:13.493Z,3.08
2022-12-05T16:27:40.852Z,3.03
2022-12-05T16:30:09.064Z,3.15
2022-12-05T16:32:35.950Z,3.00
2022-12-05T16:35:03.245Z,3.10
2022-12-05T16:37:31.224Z,3.10
2022-12-05T16:39:58.465Z,3.10
2022-12-05T16:42:26.669Z,3.09
2022-12-05T16:45:01.855Z,3.13
2022-12-05T16:47:50.059Z,3.04
2022-12-05T16:50:35.202Z,2.97
2022-12-05T16:53:02.906Z,3.13
2022-12-05T16:55:34.293Z,3.15
2022-12-05T16:58:04.031Z,3.19
2022-12-05T17:00:33.777Z,3.09
2022-12-05T17:03:25.846Z,3.07
2022-12-05T17:05:47.571Z,2.99
2022-12-05T17:08:14.441Z,3.06
2022-12-05T17:10:42.573Z,3.01
2022-12-05T17:13:13.195Z,3.04
2022-12-05T17:15:40.007Z,3.13
2022-12-05T17:18:11.355Z,3.00
2022-12-05T17:20:40.721Z,2.95
2022-12-05T17:23:11.049Z,2.88
2022-12-05T17:25:38.396Z,1.32
2022-12-05T17:28:05.290Z,3.01
2022-12-05T17:30:34.223Z,2.91
2022-12-05T17:33:01.744Z,3.01
2022-12-05T17:35:29.167Z,2.94
2022-12-05T17:37:56.540Z,3.04
2022-12-05T17:40:23.531Z,2.91
2022-12-05T17:42:50.320Z,2.98
2022-12-05T17:45:17.247Z,3.03
2022-12-05T17:47:44.028Z,2.15
2022-12-05T17:50:15.252Z,3.01
2022-12-05T17:52:42.380Z,3.12
2022-12-05T17:55:17.832Z,2.98
2022-12-05T17:57:45.436Z,3.14
2022-12-05T18:00:14.593Z,3.07
2022-12-05T18:02:41.974Z,2.99
2022-12-05T18:05:09.650Z,2.86
2022-12-05T18:07:37.391Z,2.91
2022-12-05T18:10:11.092Z,2.95
2022-12-05T18:12:39.484Z,2.90
2022-12-05T18:15:06.979Z,2.90
2022-12-05T18:17:33.782Z,2.97
2022-12-05T18:20:00.705Z,2.89
2022-12-05T18:22:27.640Z,3.10
2022-12-05T18:24:54.586Z,2.92
2022-12-05T18:27:21.466Z,3.04
2022-12-05T18:29:48.652Z,3.07
2022-12-05T18:32:16.249Z,2.90
2022-12-05T18:34:43.127Z,2.83
2022-12-05T18:37:10.670Z,2.80
2022-12-05T18:39:37.771Z,2.97
2022-12-05T18:42:09.029Z,2.98
2022-12-05T18:44:40.089Z,2.99
2022-12-05T18:47:06.947Z,2.99
2022-12-05T18:49:33.752Z,2.90
2022-12-05T18:52:00.592Z,2.92
2022-12-05T18:54:27.389Z,3.10
2022-12-05T18:56:54.300Z,2.91
2022-12-05T18:59:22.046Z,2.92
2022-12-05T19:01:49.260Z,3.11
2022-12-05T19:04:17.525Z,3.00
2022-12-05T19:06:49.389Z,2.86
2022-12-05T19:09:17.038Z,2.95
2022-12-05T19:11:47.569Z,2.95
2022-12-05T19:14:15.139Z,2.93
2022-12-05T19:16:41.974Z,2.89
2022-12-05T19:19:10.560Z,2.86
2022-12-05T19:21:37.509Z,2.87
2022-12-05T19:24:05.355Z,2.74
2022-12-05T19:26:32.345Z,2.75
2022-12-05T19:28:59.195Z,2.97
2022-12-05T19:31:27.386Z,2.92
2022-12-05T19:33:55.628Z,2.88
2022-12-05T19:36:23.832Z,2.89
2022-12-05T19:38:51.870Z,3.08
2022-12-05T19:41:20.669Z,3.09
2022-12-05T19:43:47.880Z,2.88
2022-12-05T19:46:16.242Z,2.84
2022-12-05T19:48:43.514Z,2.84
2022-12-05T19:51:10.554Z,2.80
2022-12-05T19:53:41.048Z,2.77
2022-12-05T19:56:11.433Z,2.70
2022-12-05T19:58:38.527Z,2.74
2022-12-05T20:01:22.666Z,2.77
2022-12-05T20:03:50.988Z,2.91
2022-12-05T20:06:17.991Z,2.71
2022-12-05T20:08:45.116Z,2.79
2022-12-05T20:11:13.631Z,2.85
2022-12-05T20:13:48.807Z,2.78
2022-12-05T20:16:16.944Z,2.67
2022-12-05T20:18:43.893Z,2.58
2022-12-05T20:21:12.535Z,2.48
2022-12-05T20:23:39.530Z,2.60
2022-12-05T20:26:16.844Z,2.65
2022-12-05T20:28:44.268Z,2.80
2022-12-05T20:31:16.269Z,2.58
2022-12-05T20:33:43.531Z,2.57
2022-12-05T20:36:11.810Z,2.66
2022-12-05T20:38:38.940Z,2.71
2022-12-05T20:41:06.831Z,2.62
2022-12-05T20:43:34.154Z,2.57
2022-12-05T20:46:06.123Z,2.67
2022-12-05T20:48:33.227Z,2.65
2022-12-05T20:51:10.447Z,2.60
2022-12-05T20:53:38.720Z,2.73
2022-12-05T20:56:06.568Z,2.76
2022-12-05T20:58:33.787Z,2.70
2022-12-05T21:01:05.418Z,2.61
2022-12-05T21:03:32.324Z,2.68
2022-12-05T21:05:59.177Z,2.65
2022-12-05T21:08:26.160Z,2.75
2022-12-05T21:10:53.179Z,2.66
2022-12-05T21:13:20.028Z,2.50
2022-12-05T21:15:46.920Z,2.49
2022-12-05T21:18:13.763Z,2.52
2022-12-05T21:20:42.258Z,2.40
2022-12-05T21:23:09.977Z,2.47
2022-12-05T21:25:36.891Z,2.52
2022-12-05T21:28:03.793Z,2.39
2022-12-05T21:30:30.650Z,2.48
2022-12-05T21:32:57.522Z,2.68
2022-12-05T21:35:24.318Z,2.82
2022-12-05T21:37:51.207Z,2.66
2022-12-05T21:40:18.055Z,2.79
2022-12-05T21:42:45.076Z,2.58
2022-12-05T21:45:11.886Z,2.65
2022-12-05T21:47:38.891Z,2.65
2022-12-05T21:50:07.720Z,2.45
2022-12-05T21:52:39.505Z,2.55
2022-12-05T21:55:07.942Z,2.54
2022-12-05T21:57:38.839Z,2.64
2022-12-05T22:00:09.259Z,2.55
2022-12-05T22:02:36.462Z,2.47
2022-12-05T22:05:04.853Z,2.55
2022-12-05T22:07:31.850Z,2.49
2022-12-05T22:09:59.168Z,2.47
2022-12-05T22:12:26.436Z,2.46
2022-12-05T22:14:53.749Z,2.33
2022-12-05T22:17:20.774Z,2.52
2022-12-05T22:19:47.713Z,2.52
2022-12-05T22:22:16.870Z,2.41
2022-12-05T22:24:43.776Z,2.66
2022-12-05T22:27:10.830Z,2.49
2022-12-05T22:29:37.810Z,2.60
2022-12-05T22:32:04.873Z,2.60
2022-12-05T22:34:31.838Z,2.62
2022-12-05T22:36:59.980Z,2.68
2022-12-05T22:39:27.580Z,2.57
2022-12-05T22:41:59.922Z,2.55
2022-12-05T22:44:28.890Z,2.55
2022-12-05T22:46:55.780Z,2.58
2022-12-05T22:49:25.168Z,2.59
2022-12-05T22:51:52.436Z,2.64
2022-12-05T22:54:19.460Z,2.54
2022-12-05T22:56:46.591Z,2.39
2022-12-05T22:59:14.841Z,2.46
2022-12-05T23:01:42.016Z,2.51
2022-12-05T23:04:11.935Z,2.59
2022-12-05T23:06:39.308Z,2.46
2022-12-05T23:09:07.981Z,2.29
2022-12-05T23:11:35.545Z,2.49
2022-12-05T23:14:02.915Z,2.33
2022-12-05T23:16:31.815Z,2.44
2022-12-05T23:19:00.774Z,2.41
2022-12-05T23:21:32.334Z,2.39
2022-12-05T23:24:00.567Z,2.30
2022-12-05T23:26:29.118Z,2.26
2022-12-05T23:28:56.359Z,2.24
2022-12-05T23:31:23.598Z,2.26
2022-12-05T23:33:51.596Z,2.25
2022-12-05T23:36:19.396Z,2.27
2022-12-05T23:38:46.690Z,2.26
2022-12-05T23:41:15.283Z,2.43
2022-12-05T23:43:43.167Z,2.26
2022-12-05T23:46:10.421Z,2.42
2022-12-05T23:48:37.346Z,2.34
2022-12-05T23:51:05.940Z,2.25
2022-12-05T23:53:33.724Z,2.24
2022-12-05T23:56:01.988Z,2.26
2022-12-05T23:58:30.788Z,2.16
